Time,TemperatureF,DewpointF,PressureIn,WindDirection,WindDirectionDegrees,WindSpeedMPH,WindSpeedGustMPH,Humidity,HourlyPrecipIn,Conditions,Clouds,dailyrainin,SoftwareType,DateUTC
2013-06-15 00:02:00,66.0,62.0,30.01,SSE,158,0.0,2.0,86,0.00,,,0.00,,2013-06-15 05:02:00,
2013-06-15 00:12:00,65.0,61.0,30.01,SSE,158,1.0,2.0,87,0.00,,,0.00,,2013-06-15 05:12:00,
2013-06-15 00:22:00,65.0,61.0,30.01,SSE,158,1.0,2.0,87,0.00,,,0.00,,2013-06-15 05:22:00,
2013-06-15 00:34:00,65.0,61.0,30.01,SE,134,2.0,4.0,88,0.00,,,0.00,,2013-06-15 05:34:00,
2013-06-15 00:43:00,65.0,61.0,30.01,SE,135,2.0,8.0,87,0.00,,,0.00,,2013-06-15 05:43:00,
2013-06-15 00:52:00,65.0,61.0,30.01,SE,135,2.0,8.0,87,0.00,,,0.00,,2013-06-15 05:52:00,
2013-06-15 01:02:00,65.0,61.0,30.01,SE,140,2.0,5.0,87,0.00,,,0.00,,2013-06-15 06:02:00,
2013-06-15 01:12:00,65.0,61.0,30.01,SE,138,0.0,3.0,87,0.00,,,0.00,,2013-06-15 06:12:00,
2013-06-15 01:24:00,65.0,61.0,30.01,SE,138,0.0,3.0,87,0.00,,,0.00,,2013-06-15 06:24:00,
2013-06-15 01:33:00,65.0,61.0,30.02,SE,130,0.0,4.0,87,0.00,,,0.00,,2013-06-15 06:33:00,
2013-06-15 01:43:00,65.0,61.0,30.02,SSE,148,1.0,3.0,87,0.00,,,0.00,,2013-06-15 06:43:00,
2013-06-15 01:53:00,65.0,61.0,30.02,SSE,148,1.0,3.0,87,0.00,,,0.00,,2013-06-15 06:53:00,
2013-06-15 02:01:00,65.0,61.0,30.02,SSE,148,0.0,0.0,87,0.00,,,0.00,,2013-06-15 07:01:00,
2013-06-15 02:11:00,64.0,60.0,30.02,SSE,148,0.0,1.0,88,0.00,,,0.00,,2013-06-15 07:11:00,
2013-06-15 02:23:00,64.0,60.0,30.02,SSE,148,0.0,1.0,88,0.00,,,0.00,,2013-06-15 07:23:00,
2013-06-15 02:33:00,64.0,61.0,30.02,SSE,148,0.0,1.0,89,0.00,,,0.00,,2013-06-15 07:33:00,
2013-06-15 02:43:00,64.0,61.0,30.01,SSE,148,0.0,1.0,89,0.00,,,0.00,,2013-06-15 07:43:00,
2013-06-15 02:53:00,64.0,61.0,30.01,SSE,148,0.0,1.0,89,0.00,,,0.00,,2013-06-15 07:53:00,
2013-06-15 03:02:00,64.0,61.0,30.01,SSE,148,0.0,1.0,90,0.00,,,0.00,,2013-06-15 08:02:00,
2013-06-15 03:11:00,63.0,60.0,30.01,SSE,148,0.0,1.0,91,0.00,,,0.00,,2013-06-15 08:11:00,
2013-06-15 03:22:00,63.0,60.0,30.01,SSE,148,0.0,1.0,91,0.00,,,0.00,,2013-06-15 08:22:00,
2013-06-15 03:33:00,63.0,60.0,30.00,SSE,148,0.0,1.0,91,0.00,,,0.00,,2013-06-15 08:33:00,
2013-06-15 03:42:00,63.0,61.0,29.99,SSE,148,0.0,2.0,92,0.00,,,0.00,,2013-06-15 08:42:00,
2013-06-15 03:53:00,63.0,61.0,29.99,SSE,148,0.0,2.0,92,0.00,,,0.00,,2013-06-15 08:53:00,
2013-06-15 04:02:00,63.0,60.0,29.99,SSE,148,0.0,2.0,91,0.00,,,0.00,,2013-06-15 09:02:00,
2013-06-15 04:12:00,63.0,60.0,30.01,SSE,148,0.0,2.0,90,0.00,,,0.00,,2013-06-15 09:12:00,
2013-06-15 04:22:00,63.0,60.0,30.01,SSE,148,0.0,2.0,90,0.00,,,0.00,,2013-06-15 09:22:00,
2013-06-15 04:33:00,63.0,60.0,30.01,SSE,148,0.0,2.0,89,0.00,,,0.00,,2013-06-15 09:33:00,
2013-06-15 04:43:00,63.0,60.0,30.02,SSE,148,0.0,1.0,89,0.00,,,0.00,,2013-06-15 09:43:00,
2013-06-15 04:52:00,63.0,60.0,30.02,SSE,148,0.0,1.0,89,0.00,,,0.00,,2013-06-15 09:52:00,
2013-06-15 05:02:00,64.0,61.0,30.02,SSE,148,0.0,1.0,89,0.00,,,0.00,,2013-06-15 10:02:00,
2013-06-15 05:11:00,64.0,60.0,30.03,SSE,148,0.0,2.0,88,0.00,,,0.00,,2013-06-15 10:11:00,
2013-06-15 05:23:00,64.0,60.0,30.03,SSE,148,0.0,2.0,88,0.00,,,0.00,,2013-06-15 10:23:00,
2013-06-15 05:33:00,64.0,60.0,30.04,SSE,148,0.0,1.0,88,0.00,,,0.00,,2013-06-15 10:33:00,
2013-06-15 05:44:00,64.0,60.0,30.05,SSE,148,0.0,1.0,87,0.00,,,0.00,,2013-06-15 10:44:00,
2013-06-15 05:53:00,64.0,60.0,30.05,SSE,148,0.0,1.0,87,0.00,,,0.00,,2013-06-15 10:53:00,
2013-06-15 06:02:00,64.0,60.0,30.05,SSE,148,0.0,1.0,86,0.00,,,0.00,,2013-06-15 11:02:00,
2013-06-15 06:11:00,64.0,60.0,30.05,SSE,148,0.0,0.0,86,0.00,,,0.00,,2013-06-15 11:11:00,
2013-06-15 06:22:00,64.0,60.0,30.05,SSE,148,0.0,0.0,86,0.00,,,0.00,,2013-06-15 11:22:00,
2013-06-15 06:33:00,65.0,61.0,30.03,SSE,148,0.0,2.0,88,0.01,,,0.01,,2013-06-15 11:33:00,
2013-06-15 06:43:00,65.0,61.0,30.04,SSE,157,0.0,2.0,88,0.01,,,0.01,,2013-06-15 11:43:00,
2013-06-15 06:53:00,65.0,61.0,30.04,SSE,157,0.0,2.0,88,0.01,,,0.01,,2013-06-15 11:53:00,
2013-06-15 07:01:00,65.0,62.0,30.03,SSE,157,0.0,2.0,89,0.01,,,0.01,,2013-06-15 12:01:00,
2013-06-15 07:12:00,65.0,61.0,30.03,SE,146,0.0,4.0,88,0.01,,,0.01,,2013-06-15 12:12:00,
2013-06-15 07:22:00,65.0,61.0,30.03,SE,146,0.0,4.0,88,0.01,,,0.01,,2013-06-15 12:22:00,
2013-06-15 07:33:00,66.0,62.0,30.02,SSE,157,0.0,4.0,88,0.00,,,0.01,,2013-06-15 12:33:00,
2013-06-15 07:43:00,67.0,63.0,30.02,South,190,0.0,4.0,87,0.00,,,0.01,,2013-06-15 12:43:00,
2013-06-15 07:52:00,67.0,63.0,30.02,South,190,0.0,4.0,87,0.00,,,0.01,,2013-06-15 12:52:00,
2013-06-15 08:02:00,67.0,62.0,30.01,SSE,159,1.0,4.0,84,0.00,,,0.01,,2013-06-15 13:02:00,
2013-06-15 08:11:00,68.0,62.0,30.00,SSE,162,2.0,4.0,82,0.00,,,0.01,,2013-06-15 13:11:00,
2013-06-15 08:22:00,68.0,62.0,30.00,SSE,162,2.0,4.0,82,0.00,,,0.01,,2013-06-15 13:22:00,
2013-06-15 08:32:00,69.0,63.0,29.98,ESE,123,3.0,6.0,81,0.00,,,0.01,,2013-06-15 13:32:00,
2013-06-15 08:43:00,71.0,63.0,29.96,ENE,65,3.0,8.0,77,0.00,,,0.01,,2013-06-15 13:43:00,
2013-06-15 08:53:00,71.0,63.0,29.96,ENE,65,3.0,8.0,77,0.00,,,0.01,,2013-06-15 13:53:00,
2013-06-15 09:01:00,71.0,62.0,29.96,SSE,153,3.0,8.0,74,0.00,,,0.01,,2013-06-15 14:01:00,
2013-06-15 09:12:00,72.0,63.0,29.96,ESE,109,3.0,7.0,73,0.00,,,0.01,,2013-06-15 14:12:00,
2013-06-15 09:22:00,72.0,63.0,29.96,ESE,109,3.0,7.0,73,0.00,,,0.01,,2013-06-15 14:22:00,
2013-06-15 09:34:00,72.0,63.0,29.95,SSE,155,3.0,8.0,73,0.00,,,0.01,,2013-06-15 14:34:00,
2013-06-15 09:43:00,73.0,64.0,29.97,SW,214,1.0,7.0,73,0.00,,,0.01,,2013-06-15 14:43:00,
2013-06-15 09:54:00,73.0,64.0,29.97,SW,214,1.0,7.0,73,0.00,,,0.01,,2013-06-15 14:54:00,
2013-06-15 10:02:00,73.0,63.0,29.96,SSW,202,2.0,6.0,71,0.00,,,0.01,,2013-06-15 15:02:00,
2013-06-15 10:11:00,73.0,63.0,29.96,SSW,202,2.0,6.0,71,0.00,,,0.01,,2013-06-15 15:11:00,
2013-06-15 10:22:00,73.0,63.0,29.96,SSW,204,3.0,6.0,72,0.00,,,0.01,,2013-06-15 15:22:00,
2013-06-15 10:33:00,73.0,62.0,29.96,SW,215,3.0,9.0,69,0.00,,,0.01,,2013-06-15 15:33:00,
2013-06-15 10:43:00,73.0,62.0,29.96,South,190,2.0,7.0,69,0.00,,,0.01,,2013-06-15 15:43:00,
2013-06-15 10:53:00,73.0,62.0,29.96,South,190,2.0,7.0,69,0.00,,,0.01,,2013-06-15 15:53:00,
2013-06-15 11:01:00,74.0,64.0,29.97,SSW,211,1.0,7.0,70,0.00,,,0.01,,2013-06-15 16:01:00,
2013-06-15 11:11:00,74.0,64.0,29.97,SSW,211,1.0,7.0,70,0.00,,,0.01,,2013-06-15 16:11:00,
2013-06-15 11:22:00,75.0,64.0,29.98,SSW,200,1.0,7.0,68,0.00,,,0.01,,2013-06-15 16:22:00,
2013-06-15 11:33:00,75.0,65.0,29.98,SSW,192,0.0,3.0,70,0.00,,,0.01,,2013-06-15 16:33:00,
2013-06-15 11:43:00,75.0,65.0,29.98,SSW,192,0.0,3.0,70,0.00,,,0.01,,2013-06-15 16:43:00,
2013-06-15 11:53:00,75.0,61.0,29.98,ESE,106,1.0,5.0,62,0.00,,,0.01,,2013-06-15 16:53:00,
2013-06-15 12:02:00,76.0,63.0,29.98,West,275,0.0,4.0,64,0.00,,,0.01,,2013-06-15 17:02:00,
2013-06-15 12:12:00,76.0,63.0,29.98,West,275,0.0,4.0,64,0.00,,,0.01,,2013-06-15 17:12:00,
2013-06-15 12:22:00,77.0,64.0,29.98,NW,315,0.0,3.0,64,0.00,,,0.01,,2013-06-15 17:22:00,
2013-06-15 12:32:00,77.0,63.0,29.98,SW,236,1.0,3.0,61,0.00,,,0.01,,2013-06-15 17:32:00,
2013-06-15 12:43:00,77.0,63.0,29.98,SW,236,1.0,3.0,61,0.00,,,0.01,,2013-06-15 17:43:00,
2013-06-15 12:52:00,77.0,61.0,29.97,SSW,210,0.0,12.0,57,0.00,,,0.01,,2013-06-15 17:52:00,
2013-06-15 13:01:00,78.0,63.0,29.96,SSW,198,0.0,1.0,61,0.00,,,0.01,,2013-06-15 18:01:00,
2013-06-15 13:12:00,78.0,63.0,29.96,SSW,198,0.0,1.0,61,0.00,,,0.01,,2013-06-15 18:12:00,
2013-06-15 13:22:00,77.0,63.0,29.96,SSW,198,0.0,1.0,63,0.00,,,0.01,,2013-06-15 18:22:00,
2013-06-15 13:32:00,76.0,66.0,29.96,ENE,67,0.0,3.0,71,0.00,,,0.01,,2013-06-15 18:32:00,
2013-06-15 13:43:00,76.0,66.0,29.96,ENE,67,0.0,3.0,71,0.00,,,0.01,,2013-06-15 18:43:00,
2013-06-15 13:53:00,75.0,67.0,29.96,NW,325,0.0,2.0,75,0.00,,,0.01,,2013-06-15 18:53:00,
2013-06-15 14:01:00,74.0,65.0,29.96,SSW,203,2.0,9.0,74,0.00,,,0.01,,2013-06-15 19:01:00,
2013-06-15 14:11:00,74.0,65.0,29.96,SSW,203,2.0,9.0,74,0.00,,,0.01,,2013-06-15 19:11:00,
2013-06-15 14:22:00,74.0,66.0,29.95,SE,124,1.0,6.0,75,0.00,,,0.01,,2013-06-15 19:22:00,
2013-06-15 14:33:00,74.0,66.0,29.96,ENE,59,1.0,5.0,76,0.00,,,0.01,,2013-06-15 19:33:00,
2013-06-15 14:43:00,74.0,66.0,29.96,ENE,59,1.0,5.0,76,0.00,,,0.01,,2013-06-15 19:43:00,
2013-06-15 14:53:00,75.0,67.0,29.97,SSE,151,0.0,2.0,75,0.00,,,0.01,,2013-06-15 19:53:00,
2013-06-15 15:02:00,76.0,68.0,29.97,WNW,297,0.0,3.0,76,0.00,,,0.01,,2013-06-15 20:02:00,
2013-06-15 15:11:00,76.0,68.0,29.97,WNW,297,0.0,3.0,76,0.00,,,0.01,,2013-06-15 20:11:00,
2013-06-15 15:22:00,78.0,66.0,29.97,WNW,284,1.0,6.0,66,0.00,,,0.01,,2013-06-15 20:22:00,
2013-06-15 15:33:00,78.0,64.0,29.96,NNW,334,2.0,7.0,63,0.00,,,0.01,,2013-06-15 20:33:00,
2013-06-15 15:43:00,78.0,64.0,29.96,NNW,334,2.0,7.0,63,0.00,,,0.01,,2013-06-15 20:43:00,
2013-06-15 15:53:00,78.0,65.0,29.95,West,277,1.0,7.0,64,0.00,,,0.01,,2013-06-15 20:53:00,
2013-06-15 16:01:00,78.0,66.0,29.94,West,267,0.0,8.0,66,0.00,,,0.01,,2013-06-15 21:01:00,
2013-06-15 16:12:00,78.0,66.0,29.94,West,267,0.0,8.0,66,0.00,,,0.01,,2013-06-15 21:12:00,
2013-06-15 16:22:00,78.0,65.0,29.94,SW,226,2.0,7.0,64,0.00,,,0.01,,2013-06-15 21:22:00,
2013-06-15 16:33:00,77.0,66.0,29.93,South,189,1.0,6.0,68,0.00,,,0.01,,2013-06-15 21:33:00,
2013-06-15 16:42:00,77.0,66.0,29.93,South,189,1.0,6.0,68,0.00,,,0.01,,2013-06-15 21:42:00,
2013-06-15 16:53:00,80.0,67.0,29.94,NNW,339,3.0,11.0,64,0.00,,,0.01,,2013-06-15 21:53:00,
2013-06-15 17:01:00,80.0,68.0,29.92,WSW,246,1.0,7.0,66,0.00,,,0.01,,2013-06-15 22:01:00,
2013-06-15 17:11:00,80.0,68.0,29.92,WSW,246,1.0,7.0,66,0.00,,,0.01,,2013-06-15 22:11:00,
2013-06-15 17:22:00,81.0,68.0,29.91,NNW,329,2.0,6.0,64,0.00,,,0.01,,2013-06-15 22:22:00,
2013-06-15 17:32:00,79.0,66.0,29.90,ENE,65,1.0,7.0,64,0.00,,,0.01,,2013-06-15 22:32:00,
2013-06-15 17:42:00,79.0,66.0,29.90,ENE,65,1.0,7.0,64,0.00,,,0.01,,2013-06-15 22:42:00,
2013-06-15 17:53:00,80.0,67.0,29.89,SSW,198,2.0,6.0,65,0.00,,,0.01,,2013-06-15 22:53:00,
2013-06-15 18:02:00,79.0,68.0,29.88,South,191,0.0,7.0,68,0.00,,,0.01,,2013-06-15 23:02:00,
2013-06-15 18:12:00,79.0,68.0,29.88,South,191,0.0,7.0,68,0.00,,,0.01,,2013-06-15 23:12:00,
2013-06-15 18:22:00,80.0,66.0,29.88,West,265,2.0,5.0,62,0.00,,,0.01,,2013-06-15 23:22:00,
2013-06-15 18:33:00,81.0,67.0,29.87,ENE,72,0.0,3.0,62,0.00,,,0.01,,2013-06-15 23:33:00,
2013-06-15 18:42:00,81.0,67.0,29.87,ENE,72,0.0,3.0,62,0.00,,,0.01,,2013-06-15 23:42:00,
2013-06-15 18:53:00,81.0,67.0,29.89,West,261,0.0,3.0,63,0.00,,,0.01,,2013-06-15 23:53:00,
2013-06-15 19:01:00,80.0,66.0,29.88,NW,307,0.0,4.0,63,0.00,,,0.01,,2013-06-16 00:01:00,
2013-06-15 19:11:00,80.0,66.0,29.88,NW,307,0.0,4.0,63,0.00,,,0.01,,2013-06-16 00:11:00,
2013-06-15 19:22:00,79.0,66.0,29.88,SSW,201,0.0,3.0,64,0.00,,,0.01,,2013-06-16 00:22:00,
2013-06-15 19:34:00,78.0,66.0,29.88,SSW,198,0.0,2.0,67,0.00,,,0.01,,2013-06-16 00:34:00,
2013-06-15 19:43:00,78.0,66.0,29.88,SSW,198,0.0,2.0,67,0.00,,,0.01,,2013-06-16 00:43:00,
2013-06-15 19:52:00,78.0,67.0,29.89,SSW,198,0.0,3.0,69,0.00,,,0.01,,2013-06-16 00:52:00,
2013-06-15 20:01:00,76.0,66.0,29.89,SSW,198,0.0,2.0,72,0.00,,,0.01,,2013-06-16 01:01:00,
2013-06-15 20:11:00,76.0,66.0,29.89,SSW,198,0.0,2.0,72,0.00,,,0.01,,2013-06-16 01:11:00,
2013-06-15 20:22:00,75.0,67.0,29.90,SSW,194,0.0,2.0,76,0.00,,,0.01,,2013-06-16 01:22:00,
2013-06-15 20:33:00,75.0,67.0,29.89,South,180,0.0,2.0,77,0.00,,,0.01,,2013-06-16 01:33:00,
2013-06-15 20:42:00,75.0,67.0,29.89,South,180,0.0,2.0,77,0.00,,,0.01,,2013-06-16 01:42:00,
2013-06-15 20:53:00,74.0,66.0,29.90,South,180,1.0,3.0,77,0.00,,,0.01,,2013-06-16 01:53:00,
2013-06-15 21:01:00,74.0,66.0,29.90,SW,221,2.0,5.0,76,0.00,,,0.01,,2013-06-16 02:01:00,
2013-06-15 21:12:00,74.0,66.0,29.90,SW,221,2.0,5.0,76,0.00,,,0.01,,2013-06-16 02:12:00,
2013-06-15 21:22:00,74.0,65.0,29.91,SSW,202,3.0,10.0,74,0.00,,,0.01,,2013-06-16 02:22:00,
2013-06-15 21:33:00,74.0,65.0,29.91,SW,223,5.0,10.0,74,0.00,,,0.01,,2013-06-16 02:33:00,
2013-06-15 21:43:00,74.0,65.0,29.91,SW,223,5.0,10.0,74,0.00,,,0.01,,2013-06-16 02:43:00,
2013-06-15 21:53:00,74.0,66.0,29.91,SSW,211,3.0,8.0,76,0.00,,,0.01,,2013-06-16 02:53:00,
2013-06-15 22:02:00,73.0,66.0,29.92,WNW,284,3.0,9.0,78,0.00,,,0.01,,2013-06-16 03:02:00,
2013-06-15 22:12:00,73.0,66.0,29.92,WNW,284,3.0,9.0,78,0.00,,,0.01,,2013-06-16 03:12:00,
2013-06-15 22:22:00,73.0,66.0,29.91,SSW,205,0.0,5.0,79,0.00,,,0.01,,2013-06-16 03:22:00,
2013-06-15 22:33:00,72.0,66.0,29.90,SW,215,2.0,6.0,81,0.00,,,0.01,,2013-06-16 03:33:00,
2013-06-15 22:43:00,72.0,66.0,29.90,SW,215,2.0,6.0,81,0.00,,,0.01,,2013-06-16 03:43:00,
2013-06-15 22:53:00,72.0,66.0,29.90,SW,221,2.0,5.0,82,0.00,,,0.01,,2013-06-16 03:53:00,
2013-06-15 23:02:00,72.0,66.0,29.91,SSW,197,2.0,6.0,82,0.00,,,0.01,,2013-06-16 04:02:00,
2013-06-15 23:12:00,72.0,66.0,29.91,SSW,197,2.0,6.0,82,0.00,,,0.01,,2013-06-16 04:12:00,
2013-06-15 23:23:00,72.0,66.0,29.91,West,280,2.0,8.0,82,0.00,,,0.01,,2013-06-16 04:23:00,
2013-06-15 23:33:00,72.0,66.0,29.92,SW,233,2.0,6.0,82,0.00,,,0.01,,2013-06-16 04:33:00,
2013-06-15 23:42:00,72.0,66.0,29.92,SW,233,2.0,6.0,82,0.00,,,0.01,,2013-06-16 04:42:00,
2013-06-15 23:53:00,73.0,67.0,29.94,NNW,341,8.0,20.0,81,0.00,,,0.01,,2013-06-16 04:53:00,